Time;durP1;ratioP1;P1;durP2;ratioP2;P2;SDS_P1;SDS_P2;PMS_P1;PMS_P2;Temp;Humidity;BMP_temperature;BMP_pressure;BME280_temperature;BME280_humidity;BME280_pressure;Samples;Min_cycle;Max_cycle;Signal;HPM_P1;HPM_P2
2023/03/02 00:02:04;;;;;;;3.50;2.73;;;;;;;6.65;100.00;94801.88;4991498;28;20199;-53
2023/03/02 00:04:39;;;;;;;2.90;2.60;;;;;;;6.82;100.00;94804.09;4991576;28;20222;-54
2023/03/02 00:07:07;;;;;;;3.00;2.63;;;;;;;6.77;100.00;94818.75;4991100;28;20217;-53
2023/03/02 00:09:34;;;;;;;3.33;2.50;;;;;;;6.71;100.00;94806.53;4991616;28;20272;-54
2023/03/02 00:11:59;;;;;;;2.97;2.47;;;;;;;6.72;100.00;94818.25;4991354;28;20203;-59
2023/03/02 00:14:25;;;;;;;3.03;2.13;;;;;;;6.70;100.00;94805.75;4991185;28;20294;-57
2023/03/02 00:16:50;;;;;;;2.47;2.07;;;;;;;6.69;100.00;94811.69;4991038;28;20327;-56
2023/03/02 00:19:16;;;;;;;2.53;2.00;;;;;;;6.72;100.00;94816.53;4990973;28;20218;-52
2023/03/02 00:21:41;;;;;;;2.67;1.70;;;;;;;6.86;100.00;94824.91;4989642;28;20286;-52
2023/03/02 00:24:07;;;;;;;2.63;2.33;;;;;;;6.81;100.00;94809.25;4989549;28;20215;-57
2023/03/02 00:26:34;;;;;;;2.07;1.87;;;;;;;6.86;100.00;94817.31;4990954;28;20846;-57
2023/03/02 00:28:59;;;;;;;3.33;2.50;;;;;;;6.72;100.00;94803.91;4989695;28;20218;-58
2023/03/02 00:31:24;;;;;;;2.47;1.60;;;;;;;6.81;100.00;94815.09;4990949;28;20199;-54
2023/03/02 00:33:53;;;;;;;2.53;1.87;;;;;;;6.68;100.00;94796.63;4991159;28;20636;-53
2023/03/02 00:36:20;;;;;;;2.30;2.10;;;;;;;6.76;100.00;94789.34;4990591;28;20215;-53
2023/03/02 00:38:46;;;;;;;2.20;1.93;;;;;;;6.59;100.00;94759.38;4990985;28;20223;-54
2023/03/02 00:41:14;;;;;;;2.27;1.80;;;;;;;6.69;100.00;94756.13;4990692;28;20222;-54
2023/03/02 00:43:40;;;;;;;2.37;1.90;;;;;;;6.66;100.00;94753.81;4990730;28;20625;-53
2023/03/02 00:46:14;;;;;;;2.03;1.83;;;;;;;6.24;100.00;94721.31;4990688;28;20252;-53
2023/03/02 00:48:40;;;;;;;2.80;2.03;;;;;;;6.47;100.00;94728.19;4990884;28;20203;-54
2023/03/02 00:51:07;;;;;;;2.10;1.90;;;;;;;6.52;100.00;94755.66;4990205;28;20200;-53
2023/03/02 00:53:33;;;;;;;1.80;1.70;;;;;;;6.56;100.00;94754.53;4990045;28;20202;-53
2023/03/02 00:56:00;;;;;;;2.40;1.80;;;;;;;6.59;100.00;94747.56;4990509;28;20219;-58
2023/03/02 00:58:29;;;;;;;2.33;2.10;;;;;;;6.50;100.00;94748.19;4990737;28;20257;-55
2023/03/02 01:00:55;;;;;;;2.03;1.83;;;;;;;6.43;100.00;94731.00;4990483;28;20195;-55
2023/03/02 01:03:20;;;;;;;3.73;2.27;;;;;;;6.48;100.00;94732.34;4990512;28;20268;-57
2023/03/02 01:05:46;;;;;;;2.07;1.87;;;;;;;6.43;100.00;94723.44;4990404;28;20219;-56
2023/03/02 01:08:13;;;;;;;1.70;1.60;;;;;;;6.26;100.00;94703.56;4990386;28;20196;-57
2023/03/02 01:10:38;;;;;;;2.73;1.60;;;;;;;6.33;100.00;94708.09;4990723;28;20215;-54
2023/03/02 01:13:04;;;;;;;1.80;1.57;;;;;;;6.44;100.00;94717.50;4990609;28;20305;-61
2023/03/02 01:15:31;;;;;;;2.23;1.87;;;;;;;6.41;100.00;94702.53;4990408;28;20203;-54
2023/03/02 01:17:58;;;;;;;2.43;1.63;;;;;;;6.45;100.00;94717.38;4990399;28;20231;-54
2023/03/02 01:20:23;;;;;;;1.40;1.30;;;;;;;6.34;100.00;94708.91;4990293;28;20241;-55
2023/03/02 01:22:49;;;;;;;1.83;1.50;;;;;;;6.28;100.00;94699.25;4990337;28;20188;-53
2023/03/02 01:25:15;;;;;;;1.63;1.53;;;;;;;6.37;100.00;94707.00;4990212;28;20294;-56
2023/03/02 01:27:40;;;;;;;2.33;1.47;;;;;;;6.39;100.00;94724.53;4990106;28;20648;-55
2023/03/02 01:30:06;;;;;;;1.30;1.20;;;;;;;6.37;100.00;94719.59;4990149;28;20714;-52
2023/03/02 01:32:32;;;;;;;1.33;1.23;;;;;;;6.30;100.00;94717.59;4990192;28;20572;-56
2023/03/02 01:34:57;;;;;;;1.40;1.30;;;;;;;6.28;100.00;94702.53;4990483;28;20294;-57
2023/03/02 01:37:22;;;;;;;1.03;0.90;;;;;;;6.23;100.00;94704.59;4990105;28;20715;-54
2023/03/02 01:39:49;;;;;;;1.03;0.93;;;;;;;6.14;100.00;94700.13;4990500;28;20239;-53
2023/03/02 01:42:15;;;;;;;1.27;1.00;;;;;;;6.23;100.00;94708.81;4990225;28;20211;-56
2023/03/02 01:44:47;;;;;;;1.20;1.10;;;;;;;6.18;100.00;94698.25;4990199;28;20246;-58
2023/03/02 01:47:12;;;;;;;1.30;1.20;;;;;;;6.18;100.00;94693.97;4990034;28;20286;-56
2023/03/02 01:49:42;;;;;;;0.80;0.77;;;;;;;6.28;100.00;94697.50;4989860;28;20298;-55
2023/03/02 01:52:11;;;;;;;0.80;0.80;;;;;;;6.30;100.00;94695.69;4990106;28;20730;-54
2023/03/02 01:54:37;;;;;;;0.80;0.80;;;;;;;6.29;100.00;94708.41;4989801;28;20585;-53
2023/03/02 01:57:05;;;;;;;1.37;1.07;;;;;;;6.36;100.00;94712.16;4989830;28;20207;-56
2023/03/02 01:59:33;;;;;;;1.40;1.10;;;;;;;6.30;100.00;94713.34;4990535;28;20212;-53
2023/03/02 02:02:06;;;;;;;1.07;0.90;;;;;;;6.34;100.00;94703.88;4990105;28;20187;-57
2023/03/02 02:04:36;;;;;;;1.10;1.00;;;;;;;6.25;100.00;94682.56;4989255;28;20220;-53
2023/03/02 02:07:05;;;;;;;1.30;1.20;;;;;;;6.31;100.00;94701.53;4989718;28;20198;-53
2023/03/02 02:09:36;;;;;;;1.40;1.07;;;;;;;6.33;100.00;94692.16;4989962;28;20215;-54
2023/03/02 02:12:02;;;;;;;0.80;0.80;;;;;;;6.29;100.00;94678.13;4989784;28;20218;-53
2023/03/02 02:14:28;;;;;;;2.00;0.87;;;;;;;6.37;100.00;94709.50;4989758;28;20234;-53
2023/03/02 02:16:53;;;;;;;1.30;1.20;;;;;;;6.25;100.00;94699.44;4989787;28;20298;-55
2023/03/02 02:19:35;;;;;;;1.30;1.20;;;;;;;6.23;100.00;94698.72;4988219;28;20242;-58
2023/03/02 02:22:01;;;;;;;3.00;1.10;;;;;;;6.33;100.00;94702.25;4989465;28;20202;-58
2023/03/02 02:24:35;;;;;;;2.57;1.53;;;;;;;6.32;100.00;94700.66;4989402;28;20204;-58
2023/03/02 02:27:01;;;;;;;1.53;1.30;;;;;;;6.24;100.00;94701.13;4989567;28;20244;-58
2023/03/02 02:29:34;;;;;;;2.43;1.13;;;;;;;6.13;100.00;94683.41;4989615;28;20222;-53
2023/03/02 02:32:16;;;;;;;1.40;1.30;;;;;;;6.16;100.00;94665.50;4989606;28;20187;-54
2023/03/02 02:35:06;;;;;;;3.80;1.70;;;;;;;6.34;100.00;94693.78;4989679;28;20246;-55
2023/03/02 02:37:44;;;;;;;2.13;1.00;;;;;;;6.25;100.00;94691.84;4989538;28;20214;-57
2023/03/02 02:40:59;;;;;;;1.57;1.47;;;;;;;6.22;100.00;94689.56;4989744;28;20235;-58
2023/03/02 02:43:27;;;;;;;1.23;0.97;;;;;;;6.13;100.00;94687.63;4967563;28;20211;-54
2023/03/02 02:45:55;;;;;;;2.77;1.17;;;;;;;6.21;100.00;94675.31;4989399;28;20190;-55
2023/03/02 02:48:23;;;;;;;2.47;1.40;;;;;;;6.24;100.00;94686.00;4989626;28;20191;-53
2023/03/02 02:50:58;;;;;;;1.63;1.03;;;;;;;6.19;100.00;94679.66;4989120;28;20244;-54
2023/03/02 02:53:28;;;;;;;3.77;1.23;;;;;;;6.17;100.00;94684.81;4989154;28;20191;-54
2023/03/02 02:55:56;;;;;;;3.80;1.20;;;;;;;6.18;100.00;94680.56;4987807;28;20244;-53
2023/03/02 02:58:56;;;;;;;1.63;1.07;;;;;;;6.31;100.00;94682.16;4989369;28;20206;-53
2023/03/02 03:01:24;;;;;;;2.07;1.37;;;;;;;6.35;100.00;94693.66;4947093;28;20222;-53
2023/03/02 03:03:56;;;;;;;1.40;1.30;;;;;;;6.29;100.00;94686.50;4989244;28;20681;-59
2023/03/02 03:06:36;;;;;;;1.37;1.20;;;;;;;6.28;100.00;94684.09;4989166;28;20191;-54
2023/03/02 03:09:03;;;;;;;2.50;1.30;;;;;;;6.29;100.00;94688.22;4989364;28;20335;-54
2023/03/02 03:11:32;;;;;;;1.83;1.60;;;;;;;6.20;100.00;94674.50;4988816;28;20226;-55
2023/03/02 03:14:06;;;;;;;1.30;1.20;;;;;;;6.26;100.00;94668.25;4989083;28;20211;-57
2023/03/02 03:16:32;;;;;;;1.60;1.30;;;;;;;6.25;100.00;94691.84;4986728;28;20367;-54
2023/03/02 03:19:04;;;;;;;2.07;1.40;;;;;;;6.16;100.00;94674.81;4988922;28;20250;-53
2023/03/02 03:21:29;;;;;;;1.63;1.23;;;;;;;6.04;100.00;94661.28;4989030;28;20195;-58
2023/03/02 03:23:55;;;;;;;1.43;1.30;;;;;;;6.00;100.00;94647.25;4988735;28;20238;-58
2023/03/02 03:26:20;;;;;;;1.70;1.10;;;;;;;6.07;100.00;94676.25;4988896;28;20191;-56
2023/03/02 03:28:46;;;;;;;1.17;1.10;;;;;;;6.18;100.00;94683.09;4988819;28;20216;-56
2023/03/02 03:31:11;;;;;;;2.60;1.33;;;;;;;6.06;100.00;94661.22;4988607;28;20202;-57
2023/03/02 03:33:37;;;;;;;1.97;1.30;;;;;;;5.81;100.00;94624.16;4988535;28;20210;-55
2023/03/02 03:36:02;;;;;;;1.30;0.80;;;;;;;6.06;100.00;94662.00;4988548;28;20312;-59
2023/03/02 03:38:28;;;;;;;1.30;1.10;;;;;;;6.20;100.00;94697.22;4988380;28;20198;-54
2023/03/02 03:40:53;;;;;;;1.50;1.33;;;;;;;6.17;100.00;94696.59;4989017;28;20688;-59
2023/03/02 03:43:19;;;;;;;1.43;1.17;;;;;;;6.08;100.00;94680.38;4988623;28;20244;-58
2023/03/02 03:45:44;;;;;;;1.33;1.23;;;;;;;6.11;100.00;94667.56;4987252;28;20237;-55
2023/03/02 03:48:10;;;;;;;0.93;0.93;;;;;;;6.37;100.00;94696.88;4987157;28;20191;-54
2023/03/02 03:50:35;;;;;;;1.63;1.40;;;;;;;6.13;100.00;94683.41;4987121;28;20214;-54
2023/03/02 03:53:00;;;;;;;1.13;1.03;;;;;;;6.06;100.00;94678.88;4988339;28;20188;-57
2023/03/02 03:55:27;;;;;;;1.23;1.13;;;;;;;6.12;100.00;94674.19;4986961;28;20211;-55
2023/03/02 03:57:53;;;;;;;1.67;1.33;;;;;;;6.15;100.00;94686.63;4988394;28;20219;-54
2023/03/02 04:00:20;;;;;;;1.50;1.40;;;;;;;6.18;100.00;94675.53;4988172;28;20339;-53
2023/03/02 04:02:46;;;;;;;2.03;1.67;;;;;;;6.17;100.00;94668.84;4988136;28;20191;-53
2023/03/02 04:05:12;;;;;;;1.90;1.33;;;;;;;6.18;100.00;94681.34;4988155;28;20207;-52
2023/03/02 04:07:38;;;;;;;1.60;1.50;;;;;;;6.14;100.00;94686.72;4988030;28;20195;-57
2023/03/02 04:10:06;;;;;;;1.40;1.00;;;;;;;6.02;100.00;94665.63;4988005;28;20321;-57
2023/03/02 04:12:34;;;;;;;1.23;1.17;;;;;;;5.95;100.00;94659.41;4988376;28;20248;-56
2023/03/02 04:15:01;;;;;;;1.10;0.97;;;;;;;5.94;100.00;94656.06;4988350;28;20222;-58
2023/03/02 04:17:27;;;;;;;1.63;1.30;;;;;;;5.94;100.00;94658.59;4987928;28;20699;-57
2023/03/02 04:19:53;;;;;;;1.10;1.00;;;;;;;5.92;100.00;94657.06;4987691;28;20210;-58
2023/03/02 04:22:19;;;;;;;1.50;1.30;;;;;;;5.89;100.00;94658.09;4987946;28;20229;-57
2023/03/02 04:24:46;;;;;;;2.07;1.80;;;;;;;5.87;100.00;94651.53;4986456;28;20586;-53
2023/03/02 04:27:12;;;;;;;2.50;1.80;;;;;;;5.89;100.00;94657.28;4989906;28;20195;-53
2023/03/02 04:29:38;;;;;;;2.53;2.07;;;;;;;5.92;100.00;94659.59;4990760;28;20214;-56
2023/03/02 04:32:04;;;;;;;2.63;1.87;;;;;;;5.88;100.00;94653.94;4990924;28;20201;-57
2023/03/02 04:34:29;;;;;;;2.50;2.13;;;;;;;5.88;100.00;94656.47;4991149;28;20696;-54
2023/03/02 04:36:55;;;;;;;3.67;1.90;;;;;;;5.85;100.00;94643.25;4990538;28;20223;-53
2023/03/02 04:39:20;;;;;;;1.93;1.60;;;;;;;5.85;100.00;94658.41;4989412;28;20230;-55
2023/03/02 04:41:47;;;;;;;2.40;2.03;;;;;;;5.88;100.00;94660.69;4991032;28;20191;-58
2023/03/02 04:44:13;;;;;;;3.20;2.40;;;;;;;5.85;100.00;94664.25;4990908;28;20234;-55
2023/03/02 04:46:40;;;;;;;23.23;15.43;;;;;;;5.83;100.00;94663.56;4990736;28;20187;-53
2023/03/02 04:49:05;;;;;;;3.50;2.97;;;;;;;5.81;100.00;94662.81;4990672;28;20219;-53
2023/03/02 04:51:35;;;;;;;4.07;3.17;;;;;;;5.72;100.00;94665.09;4990877;28;20327;-57
2023/03/02 04:54:07;;;;;;;4.33;3.47;;;;;;;5.66;100.00;94673.88;4990698;28;20218;-55
2023/03/02 04:56:33;;;;;;;36.10;22.53;;;;;;;5.70;100.00;94675.31;4989369;28;20227;-56
2023/03/02 04:58:59;;;;;;;9.13;6.33;;;;;;;5.65;100.00;94668.97;4990970;28;20215;-58
2023/03/02 05:01:26;;;;;;;3.70;3.27;;;;;;;5.83;100.00;94675.31;4990633;28;20195;-56
2023/03/02 05:03:51;;;;;;;3.47;3.17;;;;;;;5.81;100.00;94672.09;4990767;28;20216;-54
2023/03/02 05:06:17;;;;;;;2.50;2.30;;;;;;;5.74;100.00;94659.06;4990435;28;20704;-55
2023/03/02 05:08:43;;;;;;;3.93;2.37;;;;;;;5.89;100.00;94675.75;4990730;28;20300;-57
2023/03/02 05:11:14;;;;;;;2.37;2.10;;;;;;;5.88;100.00;94678.34;4990400;28;20722;-55
2023/03/02 05:13:40;;;;;;;3.27;2.50;;;;;;;5.78;100.00;94674.78;4990432;28;20232;-54
2023/03/02 05:16:06;;;;;;;3.40;2.20;;;;;;;5.69;100.00;94662.81;4990369;28;20700;-53
2023/03/02 05:18:31;;;;;;;3.60;2.80;;;;;;;5.69;100.00;94662.81;4990465;28;20688;-54
2023/03/02 05:20:57;;;;;;;3.27;2.77;;;;;;;5.93;100.00;94681.41;4990358;28;20669;-54
2023/03/02 05:23:22;;;;;;;2.97;2.73;;;;;;;5.96;100.00;94678.66;4990416;28;20268;-54
2023/03/02 05:25:52;;;;;;;3.53;3.10;;;;;;;6.26;100.00;94675.81;4990282;28;20329;-56
2023/03/02 05:28:19;;;;;;;3.87;3.13;;;;;;;6.16;100.00;94690.75;4990332;28;20207;-56
2023/03/02 05:30:46;;;;;;;4.67;3.27;;;;;;;6.35;100.00;94706.28;4990094;28;20271;-56
2023/03/02 05:33:11;;;;;;;7.53;4.90;;;;;;;6.79;100.00;94693.94;4990325;28;20196;-57
2023/03/02 05:35:37;;;;;;;4.13;3.73;;;;;;;7.52;100.00;94704.72;4990205;28;20302;-57
2023/03/02 05:38:04;;;;;;;3.77;3.30;;;;;;;8.02;100.00;94697.72;4989478;28;20207;-58
2023/03/02 05:40:29;;;;;;;3.27;2.97;;;;;;;7.69;100.00;94756.66;4990231;28;20207;-58
2023/03/02 05:42:55;;;;;;;4.07;2.80;;;;;;;7.72;100.00;94786.78;4990375;28;20184;-57
2023/03/02 05:45:24;;;;;;;6.47;2.70;;;;;;;7.71;100.00;94780.13;4990105;28;20261;-57
2023/03/02 05:47:50;;;;;;;4.93;3.27;;;;;;;7.45;100.00;94788.75;4990145;28;20642;-56
2023/03/02 05:50:16;;;;;;;3.23;2.77;;;;;;;7.39;100.00;94761.34;4972480;28;20302;-58
2023/03/02 05:52:41;;;;;;;3.50;2.70;;;;;;;7.36;100.00;94781.78;4989876;28;20191;-57
2023/03/02 05:55:07;;;;;;;3.40;3.00;;;;;;;7.43;100.00;94775.41;4993247;28;20202;-58
2023/03/02 05:57:33;;;;;;;5.10;2.80;;;;;;;7.47;100.00;94805.41;5009169;28;20221;-57
2023/03/02 05:59:59;;;;;;;3.40;3.03;;;;;;;7.42;100.00;94782.16;5009170;28;20718;-57
2023/03/02 06:02:24;;;;;;;3.60;2.87;;;;;;;7.05;100.00;94767.94;5001036;28;20187;-56
2023/03/02 06:04:49;;;;;;;3.90;2.83;;;;;;;7.28;100.00;94762.09;5002719;28;20707;-57
2023/03/02 06:07:15;;;;;;;2.80;2.57;;;;;;;7.34;100.00;94791.19;5009430;28;20619;-58
2023/03/02 06:09:40;;;;;;;3.30;2.93;;;;;;;7.44;100.00;94772.75;5009679;28;20290;-58
2023/03/02 06:12:07;;;;;;;3.20;2.87;;;;;;;7.23;100.00;94789.41;5009175;28;20710;-57
2023/03/02 06:14:33;;;;;;;5.37;4.23;;;;;;;8.06;100.00;94722.66;5009459;28;20215;-56
2023/03/02 06:17:06;;;;;;;8.43;4.10;;;;;;;7.63;100.00;94810.22;4993220;28;20215;-57
2023/03/02 06:19:38;;;;;;;3.83;3.40;;;;;;;7.56;100.00;94798.91;4988784;28;20239;-60
2023/03/02 06:22:04;;;;;;;5.33;3.87;;;;;;;7.36;100.00;94800.31;4989716;28;20180;-59
2023/03/02 06:24:29;;;;;;;6.00;4.23;;;;;;;7.22;100.00;94759.19;4989493;28;20231;-57
2023/03/02 06:26:54;;;;;;;4.60;4.10;;;;;;;7.17;100.00;94751.91;4989724;28;20184;-57
2023/03/02 06:29:21;;;;;;;5.23;3.97;;;;;;;6.94;100.00;94762.03;4989675;28;20207;-58
2023/03/02 06:31:47;;;;;;;6.53;4.40;;;;;;;6.96;100.00;94755.13;4989499;28;20192;-56
2023/03/02 06:34:13;;;;;;;4.40;4.00;;;;;;;6.97;100.00;94766.88;4989706;28;20207;-56
2023/03/02 06:36:38;;;;;;;4.93;3.83;;;;;;;6.86;100.00;94770.13;4989432;28;20216;-57
2023/03/02 06:39:06;;;;;;;3.83;3.33;;;;;;;6.78;100.00;94750.47;4989744;28;20211;-57
2023/03/02 06:41:32;;;;;;;4.50;4.07;;;;;;;6.70;100.00;94737.53;4988825;28;20249;-57
2023/03/02 06:44:01;;;;;;;5.83;4.10;;;;;;;6.81;100.00;94730.94;4987910;28;20215;-56
2023/03/02 06:46:27;;;;;;;5.63;4.83;;;;;;;6.89;100.00;94754.75;4989463;28;20214;-57
2023/03/02 06:48:52;;;;;;;5.03;3.90;;;;;;;6.90;100.00;94755.56;4989073;28;20580;-57
2023/03/02 06:51:18;;;;;;;6.60;4.53;;;;;;;6.83;100.00;94737.47;4987115;28;20187;-59
2023/03/02 06:53:43;;;;;;;6.70;5.23;;;;;;;7.09;100.00;94759.22;4988205;28;20223;-57
2023/03/02 06:56:09;;;;;;;6.30;5.20;;;;;;;7.16;100.00;94772.25;4989094;28;20219;-56
2023/03/02 06:58:35;;;;;;;6.23;4.83;;;;;;;6.99;100.00;94765.84;4989536;28;20640;-59
2023/03/02 07:01:00;;;;;;;6.10;4.97;;;;;;;7.02;100.00;94772.41;4989302;28;20243;-57
2023/03/02 07:03:26;;;;;;;8.47;5.70;;;;;;;6.95;100.00;94796.50;4989154;28;20211;-61
2023/03/02 07:05:51;;;;;;;7.30;4.37;;;;;;;6.89;100.00;94764.06;4989268;28;20248;-56
2023/03/02 07:08:17;;;;;;;6.73;4.83;;;;;;;6.74;100.00;94723.78;4989113;28;20184;-56
2023/03/02 07:10:42;;;;;;;6.20;5.23;;;;;;;6.87;100.00;94746.47;4989029;28;20218;-58
2023/03/02 07:13:08;;;;;;;7.67;4.70;;;;;;;7.07;100.00;94766.13;4989131;28;20241;-56
2023/03/02 07:15:33;;;;;;;9.10;5.30;;;;;;;7.15;100.00;94780.78;4988954;28;20204;-57
2023/03/02 07:17:59;;;;;;;6.13;4.90;;;;;;;7.03;100.00;94786.66;4989040;28;20306;-57
2023/03/02 07:20:24;;;;;;;8.27;4.30;;;;;;;6.91;100.00;94764.78;4988788;28;20200;-57
2023/03/02 07:22:50;;;;;;;5.50;4.37;;;;;;;6.95;100.00;94751.78;4987567;28;20212;-56
2023/03/02 07:25:15;;;;;;;11.47;4.80;;;;;;;7.16;100.00;94768.03;4988765;28;20598;-56
2023/03/02 07:27:41;;;;;;;7.30;5.03;;;;;;;7.16;100.00;94783.19;4988866;28;20179;-57
2023/03/02 07:30:07;;;;;;;5.67;4.30;;;;;;;7.04;100.00;94766.34;4988727;28;20203;-56
2023/03/02 07:32:33;;;;;;;7.07;5.50;;;;;;;6.97;100.00;94795.47;4988604;28;20198;-58
2023/03/02 07:34:58;;;;;;;8.87;6.43;;;;;;;6.95;100.00;94761.91;4989034;28;20211;-57
2023/03/02 07:37:24;;;;;;;8.07;4.90;;;;;;;7.02;100.00;94744.59;4988815;28;20219;-58
2023/03/02 07:39:49;;;;;;;8.03;5.90;;;;;;;7.18;100.00;94780.53;4988901;28;20215;-57
2023/03/02 07:42:16;;;;;;;10.70;5.70;;;;;;;7.09;100.00;94761.75;4988844;28;20198;-58
2023/03/02 07:44:41;;;;;;;8.50;5.90;;;;;;;7.00;100.00;94787.69;4988893;28;20253;-59
2023/03/02 07:47:07;;;;;;;6.83;5.00;;;;;;;7.01;100.00;94783.44;4988432;28;20211;-57
2023/03/02 07:49:34;;;;;;;11.17;5.77;;;;;;;7.03;100.00;94774.81;4988463;28;20762;-58
2023/03/02 07:52:00;;;;;;;8.20;5.57;;;;;;;6.96;100.00;94766.06;4988579;28;20267;-60
2023/03/02 07:54:26;;;;;;;10.63;5.53;;;;;;;7.07;100.00;94770.38;4988232;28;20776;-56
2023/03/02 07:56:52;;;;;;;6.13;4.83;;;;;;;7.06;100.00;94776.34;4988279;28;20297;-56
2023/03/02 07:59:17;;;;;;;9.00;4.67;;;;;;;7.14;100.00;94791.78;4988803;28;20231;-57
2023/03/02 08:01:43;;;;;;;6.17;4.23;;;;;;;7.01;100.00;94796.06;4989796;28;20203;-59
2023/03/02 08:04:08;;;;;;;6.40;4.40;;;;;;;6.98;100.00;94781.94;4991612;28;20211;-57
2023/03/02 08:06:34;;;;;;;6.13;3.83;;;;;;;6.85;100.00;94765.19;4991308;28;20278;-55
2023/03/02 08:09:02;;;;;;;6.83;4.53;;;;;;;6.90;100.00;94747.97;4991229;28;20222;-60
2023/03/02 08:11:28;;;;;;;6.07;4.53;;;;;;;6.93;100.00;94737.69;4991380;28;20188;-61
2023/03/02 08:13:53;;;;;;;6.07;4.90;;;;;;;6.87;100.00;94725.47;4991352;28;20598;-59
2023/03/02 08:16:19;;;;;;;6.17;4.40;;;;;;;6.94;100.00;94740.09;4989843;28;20709;-59
2023/03/02 08:18:44;;;;;;;6.00;3.67;;;;;;;6.90;100.00;94727.78;4991494;28;20219;-56
2023/03/02 08:21:16;;;;;;;7.07;4.80;;;;;;;6.87;100.00;94725.47;4991282;28;20665;-56
2023/03/02 08:23:42;;;;;;;6.40;4.60;;;;;;;7.03;100.00;94696.47;4991456;28;20245;-60
2023/03/02 08:26:08;;;;;;;6.00;4.57;;;;;;;7.04;100.00;94712.44;4991179;28;20726;-57
2023/03/02 08:28:34;;;;;;;5.53;4.30;;;;;;;7.12;100.00;94695.84;4991001;28;20188;-58
2023/03/02 08:31:01;;;;;;;5.07;4.20;;;;;;;7.04;100.00;94700.63;4990990;28;20184;-56
2023/03/02 08:33:29;;;;;;;8.20;5.03;;;;;;;7.02;100.00;94704.16;4991118;28;20198;-59
2023/03/02 08:36:00;;;;;;;6.57;5.37;;;;;;;7.13;100.00;94711.81;4990781;28;20669;-56
2023/03/02 08:38:26;;;;;;;7.83;5.37;;;;;;;6.99;100.00;94714.50;4991099;28;20192;-56
2023/03/02 08:40:52;;;;;;;8.43;6.03;;;;;;;7.02;100.00;94701.66;4990748;28;20293;-56
2023/03/02 08:43:19;;;;;;;7.83;6.10;;;;;;;7.22;100.00;94724.63;4991013;28;20286;-55
2023/03/02 08:45:44;;;;;;;8.33;6.27;;;;;;;7.28;100.00;94723.38;4990657;28;20214;-56
2023/03/02 08:48:10;;;;;;;9.83;5.83;;;;;;;7.24;100.00;94729.56;4990720;28;20195;-56
2023/03/02 08:50:35;;;;;;;6.83;5.17;;;;;;;7.33;100.00;94733.97;4990683;28;20269;-55
2023/03/02 08:53:01;;;;;;;8.13;5.87;;;;;;;7.35;100.00;94722.03;4990842;28;20184;-57
2023/03/02 08:55:26;;;;;;;6.13;4.67;;;;;;;7.34;100.00;94743.97;4990796;28;20641;-56
2023/03/02 08:57:53;;;;;;;8.30;6.07;;;;;;;7.20;100.00;94723.09;4989527;28;20752;-59
2023/03/02 09:00:19;;;;;;;6.57;5.57;;;;;;;7.29;100.00;94714.88;4990851;28;20222;-59
2023/03/02 09:02:44;;;;;;;9.83;5.83;;;;;;;7.24;100.00;94694.16;4990758;28;20203;-59
2023/03/02 09:05:11;;;;;;;9.30;6.47;;;;;;;7.33;100.00;94718.81;4990489;28;20215;-56
2023/03/02 09:07:36;;;;;;;7.30;5.20;;;;;;;7.31;100.00;94735.81;4990583;28;20199;-56
2023/03/02 09:10:02;;;;;;;6.03;4.90;;;;;;;7.24;100.00;94737.13;4990489;28;20220;-56
2023/03/02 09:12:28;;;;;;;7.80;5.40;;;;;;;7.16;100.00;94737.69;4989860;28;20587;-57
2023/03/02 09:14:53;;;;;;;6.17;4.90;;;;;;;7.06;100.00;94740.94;4989278;28;20262;-58
2023/03/02 09:17:19;;;;;;;7.20;5.20;;;;;;;6.99;100.00;94732.97;4990413;28;20572;-56
2023/03/02 09:19:44;;;;;;;6.87;5.13;;;;;;;7.13;100.00;94699.97;4990613;28;20315;-58
2023/03/02 09:22:09;;;;;;;7.47;5.90;;;;;;;7.15;100.00;94720.88;4990487;28;20541;-56
2023/03/02 09:24:35;;;;;;;8.33;5.63;;;;;;;7.22;100.00;94721.28;4990289;28;20227;-60
2023/03/02 09:27:02;;;;;;;6.00;4.80;;;;;;;7.27;100.00;94719.25;4990403;28;20232;-59
2023/03/02 09:29:28;;;;;;;6.87;5.47;;;;;;;7.32;100.00;94727.28;4990809;28;20239;-56
2023/03/02 09:31:54;;;;;;;5.73;4.93;;;;;;;7.29;100.00;94740.94;4990216;28;20734;-57
2023/03/02 09:34:19;;;;;;;7.80;5.37;;;;;;;7.20;100.00;94723.09;4990661;28;20212;-58
2023/03/02 09:36:45;;;;;;;6.90;5.53;;;;;;;7.23;100.00;94708.50;4989071;28;20215;-59
2023/03/02 09:39:11;;;;;;;8.50;5.97;;;;;;;7.28;100.00;94695.56;4990392;28;20220;-57
2023/03/02 09:42:01;;;;;;;9.47;7.27;;;;;;;7.28;100.00;94680.38;4990412;28;20572;-57
2023/03/02 09:44:48;;;;;;;8.20;6.27;;;;;;;7.47;100.00;94699.19;4990409;28;20215;-58
2023/03/02 09:47:44;;;;;;;6.20;5.40;;;;;;;7.43;100.00;94710.44;4990065;28;20200;-57
2023/03/02 09:50:30;;;;;;;6.97;5.03;;;;;;;7.45;100.00;94695.16;4982083;28;20239;-56
2023/03/02 09:53:25;;;;;;;8.03;5.67;;;;;;;7.42;100.00;94710.56;4990268;28;20195;-60
2023/03/02 09:55:55;;;;;;;6.50;5.30;;;;;;;7.41;100.00;94703.91;4990348;28;20198;-56
2023/03/02 09:58:25;;;;;;;9.27;4.87;;;;;;;7.43;100.00;94727.34;4990161;28;20202;-56
2023/03/02 10:00:51;;;;;;;7.57;5.37;;;;;;;7.54;100.00;94713.00;4990134;28;20198;-59
2023/03/02 10:03:20;;;;;;;7.57;4.93;;;;;;;7.65;100.00;94740.06;4990067;28;20653;-60
2023/03/02 10:05:55;;;;;;;7.33;4.67;;;;;;;7.72;100.00;94750.53;4990138;28;20624;-60
2023/03/02 10:08:26;;;;;;;5.60;4.20;;;;;;;7.72;100.00;94753.88;4990011;28;20260;-60
2023/03/02 10:11:06;;;;;;;7.73;5.30;;;;;;;7.73;100.00;94736.97;4990041;28;20187;-56
2023/03/02 10:13:41;;;;;;;6.83;4.23;;;;;;;7.79;100.00;94762.66;4989940;28;20203;-57
2023/03/02 10:16:18;;;;;;;7.10;5.07;;;;;;;7.86;100.00;94728.38;4989764;28;20580;-56
2023/03/02 10:18:52;;;;;;;6.37;4.27;;;;;;;7.75;100.00;94760.44;4989808;28;20223;-57
2023/03/02 10:21:41;;;;;;;4.33;3.93;;;;;;;7.86;100.00;94781.53;4990135;28;20183;-57
2023/03/02 10:24:29;;;;;;;6.67;4.27;;;;;;;7.86;100.00;94796.72;4988290;28;20211;-63
2023/03/02 10:27:16;;;;;;;5.33;4.13;;;;;;;7.92;100.00;94732.22;4989770;28;20620;-56
2023/03/02 10:30:00;;;;;;;5.33;4.30;;;;;;;7.88;100.00;94767.03;4989358;28;20227;-57
2023/03/02 10:32:34;;;;;;;4.67;4.10;;;;;;;7.74;100.00;94784.94;4989504;28;20183;-56
2023/03/02 10:35:09;;;;;;;6.80;4.30;;;;;;;7.71;100.00;94785.16;4990047;28;20215;-55
2023/03/02 10:37:35;;;;;;;6.93;4.60;;;;;;;7.44;100.00;94728.94;4989504;28;20221;-56
2023/03/02 10:40:00;;;;;;;5.77;4.80;;;;;;;7.62;100.00;94746.16;4989655;28;20219;-56
2023/03/02 10:42:30;;;;;;;6.43;4.67;;;;;;;7.63;100.00;94762.94;4989635;28;20203;-57
2023/03/02 10:45:07;;;;;;;5.83;5.10;;;;;;;8.55;100.00;94665.81;4989655;28;20216;-58
2023/03/02 10:47:32;;;;;;;8.87;4.83;;;;;;;9.25;100.00;94715.22;4989272;28;20199;-56
2023/03/02 10:49:58;;;;;;;7.63;4.30;;;;;;;8.90;100.00;94824.44;4988683;28;20211;-57
2023/03/02 10:52:27;;;;;;;5.87;4.47;;;;;;;8.75;100.00;94804.47;4989140;28;20227;-55
2023/03/02 10:55:16;;;;;;;5.20;3.97;;;;;;;8.46;100.00;94768.69;4987876;28;20242;-57
2023/03/02 10:57:43;;;;;;;8.17;4.37;;;;;;;8.19;100.00;94760.56;4989249;28;20219;-56
2023/03/02 11:00:23;;;;;;;7.77;4.80;;;;;;;8.05;100.00;94737.97;4989236;28;20252;-59
2023/03/02 11:02:50;;;;;;;4.97;3.93;;;;;;;7.98;100.00;94757.84;4989160;28;20191;-59
2023/03/02 11:05:37;;;;;;;5.50;4.70;;;;;;;8.08;100.00;94740.28;4988960;28;20585;-57
2023/03/02 11:08:07;;;;;;;5.47;3.90;;;;;;;8.08;100.00;94735.22;4989131;28;20272;-58
2023/03/02 11:10:33;;;;;;;5.47;4.40;;;;;;;7.94;100.00;94750.63;4988311;28;20208;-55
2023/03/02 11:12:59;;;;;;;5.70;3.93;;;;;;;8.11;100.00;94720.63;4988936;28;20188;-60
2023/03/02 11:15:28;;;;;;;7.77;3.93;;;;;;;8.03;100.00;94776.06;4988724;28;20295;-56
2023/03/02 11:18:03;;;;;;;5.13;4.37;;;;;;;8.11;100.00;94729.94;4989045;28;20223;-58
2023/03/02 11:20:33;;;;;;;10.13;4.57;;;;;;;8.27;100.00;94720.31;4988883;28;20708;-59
2023/03/02 11:23:14;;;;;;;5.47;4.60;;;;;;;8.00;100.00;94709.69;4989100;28;20191;-60
2023/03/02 11:25:50;;;;;;;6.10;3.93;;;;;;;8.26;100.00;94760.00;4988927;28;20211;-55
2023/03/02 11:28:30;;;;;;;5.00;3.83;;;;;;;8.26;100.00;94782.00;4988958;28;20210;-56
2023/03/02 11:30:59;;;;;;;6.23;4.43;;;;;;;8.31;100.00;94745.28;4988774;28;20195;-56
2023/03/02 11:33:28;;;;;;;6.50;4.40;;;;;;;8.36;100.00;94760.94;4988664;28;20312;-56
2023/03/02 11:36:01;;;;;;;4.60;4.00;;;;;;;8.23;100.00;94750.09;4989174;28;20191;-55
2023/03/02 11:38:40;;;;;;;5.77;3.90;;;;;;;8.14;100.00;94744.91;4991532;28;20258;-55
2023/03/02 11:41:23;;;;;;;9.47;4.50;;;;;;;8.22;100.00;94751.00;4991810;28;20615;-59